Time,TemperatureF,DewpointF,PressureIn,WindDirection,WindDirectionDegrees,WindSpeedMPH,WindSpeedGustMPH,Humidity,HourlyPrecipIn,Conditions,Clouds,dailyrainin,SoftwareType,DateUTC
2013-10-04 00:02:00,35.4,34.1,28.58,West,270,0.0,0.0,95,0.00,,---,0.00,VWS V14.01,2013-10-04 07:02:00,
2013-10-04 00:07:00,35.4,34.1,28.58,West,270,0.0,0.0,95,0.00,,---,0.00,VWS V14.01,2013-10-04 07:07:00,
2013-10-04 00:12:00,35.6,34.0,28.58,WSW,248,0.0,0.0,94,0.00,,---,0.00,VWS V14.01,2013-10-04 07:12:00,
2013-10-04 00:17:00,35.6,34.3,28.58,WSW,248,0.0,0.0,95,0.00,,---,0.00,VWS V14.01,2013-10-04 07:17:00,
2013-10-04 00:22:00,35.6,34.3,28.58,West,270,0.0,0.0,95,0.00,,---,0.00,VWS V14.01,2013-10-04 07:22:00,
2013-10-04 00:27:00,35.6,34.3,28.58,West,270,0.0,0.0,95,0.00,,---,0.00,VWS V14.01,2013-10-04 07:27:00,
2013-10-04 00:32:00,35.4,34.1,28.58,West,270,0.0,0.0,95,0.00,,---,0.00,VWS V14.01,2013-10-04 07:32:00,
2013-10-04 00:37:00,35.4,34.1,28.58,West,270,0.0,0.0,95,0.00,,---,0.00,VWS V14.01,2013-10-04 07:37:00,
2013-10-04 00:42:00,35.4,34.1,28.58,West,270,0.0,0.0,95,0.00,,---,0.00,VWS V14.01,2013-10-04 07:42:00,
2013-10-04 00:47:00,35.4,34.1,28.58,West,270,0.0,0.0,95,0.00,,---,0.00,VWS V14.01,2013-10-04 07:47:00,
2013-10-04 00:52:00,35.4,34.1,28.58,West,270,0.0,0.0,95,0.00,,---,0.00,VWS V14.01,2013-10-04 07:52:00,
2013-10-04 00:57:00,35.2,34.0,28.58,West,270,0.0,0.0,95,0.00,,---,0.00,VWS V14.01,2013-10-04 07:57:00,
2013-10-04 01:02:00,35.4,34.1,28.58,WSW,248,0.0,0.0,95,0.00,,---,0.00,VWS V14.01,2013-10-04 08:02:00,
2013-10-04 01:07:00,35.6,34.3,28.58,WSW,248,0.0,0.0,95,0.00,,---,0.00,VWS V14.01,2013-10-04 08:07:00,
2013-10-04 01:12:00,35.4,34.4,28.58,WSW,248,0.0,0.0,96,0.00,,---,0.00,VWS V14.01,2013-10-04 08:12:00,
2013-10-04 01:17:00,35.4,34.4,28.58,WSW,248,0.0,0.0,96,0.00,,---,0.00,VWS V14.01,2013-10-04 08:17:00,
2013-10-04 01:22:00,35.2,34.0,28.58,WSW,248,0.0,0.0,95,0.00,,---,0.00,VWS V14.01,2013-10-04 08:22:00,
2013-10-04 01:27:00,35.4,34.4,28.58,WSW,248,0.0,0.0,96,0.00,,---,0.00,VWS V14.01,2013-10-04 08:27:00,
2013-10-04 01:32:00,35.1,34.0,28.58,WSW,248,0.0,0.0,96,0.00,,---,0.00,VWS V14.01,2013-10-04 08:32:00,
2013-10-04 01:37:00,35.1,33.8,28.58,WSW,248,0.0,0.0,95,0.00,,---,0.00,VWS V14.01,2013-10-04 08:37:00,
2013-10-04 01:42:00,34.9,33.6,28.58,WSW,248,0.0,0.0,95,0.00,,---,0.00,VWS V14.01,2013-10-04 08:42:00,
2013-10-04 01:47:00,34.9,33.6,28.58,WSW,248,0.0,0.0,95,0.00,,---,0.00,VWS V14.01,2013-10-04 08:47:00,
2013-10-04 01:52:00,34.7,33.4,28.58,WSW,248,0.0,0.0,95,0.00,,---,0.00,VWS V14.01,2013-10-04 08:52:00,
2013-10-04 01:57:00,34.7,33.7,28.58,WSW,248,0.0,0.0,96,0.00,,---,0.00,VWS V14.01,2013-10-04 08:57:00,
2013-10-04 02:02:00,34.5,33.5,28.61,WSW,248,0.0,0.0,96,0.00,,---,0.00,VWS V14.01,2013-10-04 09:02:00,
2013-10-04 02:07:00,34.5,33.5,28.61,WSW,248,0.0,0.0,96,0.00,,---,0.00,VWS V14.01,2013-10-04 09:07:00,
2013-10-04 02:12:00,34.5,33.5,28.61,WSW,248,0.0,0.0,96,0.00,,---,0.00,VWS V14.01,2013-10-04 09:12:00,
2013-10-04 02:17:00,34.5,33.5,28.58,WSW,248,0.0,0.0,96,0.00,,---,0.00,VWS V14.01,2013-10-04 09:17:00,
2013-10-04 02:22:00,34.2,33.1,28.58,WSW,248,0.0,0.0,96,0.00,,---,0.00,VWS V14.01,2013-10-04 09:22:00,
2013-10-04 02:27:00,34.2,32.9,28.58,WSW,248,0.0,0.0,95,0.00,,---,0.00,VWS V14.01,2013-10-04 09:27:00,
2013-10-04 02:32:00,34.3,33.3,28.61,WSW,248,0.0,0.0,96,0.00,,---,0.00,VWS V14.01,2013-10-04 09:32:00,
2013-10-04 02:37:00,34.0,33.0,28.61,WSW,248,0.0,0.0,96,0.00,,---,0.00,VWS V14.01,2013-10-04 09:37:00,
2013-10-04 02:42:00,34.0,33.0,28.61,WSW,248,0.0,0.0,96,0.00,,---,0.00,VWS V14.01,2013-10-04 09:42:00,
2013-10-04 02:47:00,34.2,33.1,28.58,WSW,248,0.0,0.0,96,0.00,,---,0.00,VWS V14.01,2013-10-04 09:47:00,
2013-10-04 02:52:00,34.0,33.0,28.58,NNE,22,0.0,0.0,96,0.00,,---,0.00,VWS V14.01,2013-10-04 09:52:00,
2013-10-04 02:57:00,34.0,33.0,28.58,North,0,0.0,0.0,96,0.00,,---,0.00,VWS V14.01,2013-10-04 09:57:00,
2013-10-04 03:02:00,33.8,32.8,28.58,SSW,202,0.0,0.0,96,0.00,,---,0.00,VWS V14.01,2013-10-04 10:02:00,
2013-10-04 03:07:00,34.0,33.0,28.58,SW,225,0.0,0.0,96,0.00,,---,0.00,VWS V14.01,2013-10-04 10:07:00,
2013-10-04 03:12:00,34.3,33.3,28.58,SW,225,0.0,0.0,96,0.00,,---,0.00,VWS V14.01,2013-10-04 10:12:00,
2013-10-04 03:17:00,34.3,33.3,28.58,West,270,0.0,0.0,96,0.00,,---,0.00,VWS V14.01,2013-10-04 10:17:00,
2013-10-04 03:22:00,34.3,33.3,28.58,West,270,0.0,0.0,96,0.00,,---,0.00,VWS V14.01,2013-10-04 10:22:00,
2013-10-04 03:27:00,34.0,33.0,28.58,West,270,0.0,0.0,96,0.00,,---,0.00,VWS V14.01,2013-10-04 10:27:00,
2013-10-04 03:32:00,34.0,33.0,28.61,West,270,0.0,0.0,96,0.00,,---,0.00,VWS V14.01,2013-10-04 10:32:00,
2013-10-04 03:37:00,34.0,33.0,28.61,West,270,0.0,0.0,96,0.00,,---,0.00,VWS V14.01,2013-10-04 10:37:00,
2013-10-04 03:42:00,34.0,33.0,28.61,West,270,0.0,0.0,96,0.00,,---,0.00,VWS V14.01,2013-10-04 10:42:00,
2013-10-04 03:47:00,34.0,33.0,28.61,West,270,0.0,0.0,96,0.00,,---,0.00,VWS V14.01,2013-10-04 10:47:00,
2013-10-04 03:52:00,33.8,32.8,28.61,West,270,0.0,0.0,96,0.00,,---,0.00,VWS V14.01,2013-10-04 10:52:00,
2013-10-04 03:57:00,33.8,32.8,28.61,West,270,0.0,0.0,96,0.00,,---,0.00,VWS V14.01,2013-10-04 10:57:00,
2013-10-04 04:02:00,33.8,32.8,28.61,West,270,0.0,0.0,96,0.00,,---,0.00,VWS V14.01,2013-10-04 11:02:00,
2013-10-04 04:07:00,33.8,32.8,28.61,WNW,292,0.0,0.0,96,0.00,,---,0.00,VWS V14.01,2013-10-04 11:07:00,
2013-10-04 04:12:00,33.6,32.6,28.61,West,270,0.0,0.0,96,0.00,,---,0.00,VWS V14.01,2013-10-04 11:12:00,
2013-10-04 04:17:00,33.6,32.6,28.61,West,270,0.0,0.0,96,0.00,,---,0.00,VWS V14.01,2013-10-04 11:17:00,
2013-10-04 04:22:00,33.6,32.6,28.61,WSW,248,0.0,0.0,96,0.00,,---,0.00,VWS V14.01,2013-10-04 11:22:00,
2013-10-04 04:27:00,33.8,32.8,28.61,WSW,248,0.0,0.0,96,0.00,,---,0.00,VWS V14.01,2013-10-04 11:27:00,
2013-10-04 04:33:00,33.6,32.9,28.61,NNW,338,0.0,0.0,97,0.00,,---,0.00,VWS V14.01,2013-10-04 11:33:00,
2013-10-04 04:38:00,33.6,32.9,28.61,WSW,248,0.0,0.0,97,0.00,,---,0.00,VWS V14.01,2013-10-04 11:38:00,
2013-10-04 04:43:00,33.6,32.9,28.61,West,270,0.0,0.0,97,0.00,,---,0.00,VWS V14.01,2013-10-04 11:43:00,
2013-10-04 04:48:00,33.6,32.9,28.61,West,270,0.0,0.0,97,0.00,,---,0.00,VWS V14.01,2013-10-04 11:48:00,
2013-10-04 04:53:00,33.4,32.7,28.61,West,270,0.0,0.0,97,0.00,,---,0.00,VWS V14.01,2013-10-04 11:53:00,
2013-10-04 04:58:00,33.4,32.7,28.61,West,270,0.0,0.0,97,0.00,,---,0.00,VWS V14.01,2013-10-04 11:58:00,
2013-10-04 05:05:00,33.1,32.1,28.61,West,270,0.0,0.0,96,0.00,,---,0.00,VWS V14.01,2013-10-04 12:05:00,
2013-10-04 05:10:00,33.3,32.2,28.61,West,270,0.0,0.0,96,0.00,,---,0.00,VWS V14.01,2013-10-04 12:10:00,
2013-10-04 05:15:00,33.1,32.1,28.61,West,270,0.0,0.0,96,0.00,,---,0.00,VWS V14.01,2013-10-04 12:15:00,
2013-10-04 05:20:00,32.9,31.9,28.61,West,270,0.0,0.0,96,0.00,,---,0.00,VWS V14.01,2013-10-04 12:20:00,
2013-10-04 05:26:00,33.1,32.1,28.61,West,270,0.0,0.0,96,0.00,,---,0.00,VWS V14.01,2013-10-04 12:26:00,
2013-10-04 05:31:00,33.1,32.3,28.61,WSW,248,0.0,0.0,97,0.00,,---,0.00,VWS V14.01,2013-10-04 12:31:00,
2013-10-04 05:36:00,33.1,32.3,28.61,WSW,248,0.0,0.0,97,0.00,,---,0.00,VWS V14.01,2013-10-04 12:36:00,
2013-10-04 05:41:00,33.1,32.3,28.61,WSW,248,0.0,0.0,97,0.00,,---,0.00,VWS V14.01,2013-10-04 12:41:00,
2013-10-04 05:46:00,33.1,32.3,28.61,WSW,248,0.0,0.0,97,0.00,,---,0.00,VWS V14.01,2013-10-04 12:46:00,
2013-10-04 05:51:00,32.9,32.1,28.61,WSW,248,0.0,0.0,97,0.00,,---,0.00,VWS V14.01,2013-10-04 12:51:00,
2013-10-04 05:56:00,32.9,32.1,28.61,WSW,248,0.0,0.0,97,0.00,,---,0.00,VWS V14.01,2013-10-04 12:56:00,
2013-10-04 06:01:00,32.9,32.1,28.61,WSW,248,0.0,0.0,97,0.00,,---,0.00,VWS V14.01,2013-10-04 13:01:00,
2013-10-04 06:06:00,32.9,32.1,28.61,WSW,248,0.0,0.0,97,0.00,,---,0.00,VWS V14.01,2013-10-04 13:06:00,
2013-10-04 06:11:00,32.9,32.1,28.61,WSW,248,0.0,0.0,97,0.00,,---,0.00,VWS V14.01,2013-10-04 13:11:00,
2013-10-04 06:16:00,32.7,32.0,28.61,WSW,248,0.0,0.0,97,0.00,,---,0.00,VWS V14.01,2013-10-04 13:16:00,
2013-10-04 06:21:00,32.7,32.0,28.61,WSW,248,0.0,0.0,97,0.00,,---,0.00,VWS V14.01,2013-10-04 13:21:00,
2013-10-04 06:26:00,32.7,32.0,28.61,WSW,248,0.0,0.0,97,0.00,,---,0.00,VWS V14.01,2013-10-04 13:26:00,
2013-10-04 06:31:00,32.7,32.0,28.61,WNW,292,0.0,0.0,97,0.00,,---,0.00,VWS V14.01,2013-10-04 13:31:00,
2013-10-04 06:36:00,32.5,31.8,28.61,WNW,292,0.0,0.0,97,0.00,,---,0.00,VWS V14.01,2013-10-04 13:36:00,
2013-10-04 06:41:00,32.7,32.0,28.61,WNW,292,0.0,0.0,97,0.00,,---,0.00,VWS V14.01,2013-10-04 13:41:00,
2013-10-04 06:46:00,32.5,31.8,28.61,WNW,292,0.0,0.0,97,0.00,,---,0.00,VWS V14.01,2013-10-04 13:46:00,
2013-10-04 06:51:00,32.2,31.4,28.61,WNW,292,0.0,0.0,97,0.00,,---,0.00,VWS V14.01,2013-10-04 13:51:00,
2013-10-04 06:56:00,32.2,31.4,28.61,WNW,292,0.0,0.0,97,0.00,,---,0.00,VWS V14.01,2013-10-04 13:56:00,
2013-10-04 07:01:00,32.0,31.2,28.61,WNW,292,0.0,0.0,97,0.00,,---,0.00,VWS V14.01,2013-10-04 14:01:00,
2013-10-04 07:06:00,32.0,31.2,28.61,WNW,292,0.0,0.0,97,0.00,,---,0.00,VWS V14.01,2013-10-04 14:06:00,
2013-10-04 07:11:00,32.0,31.2,28.61,WNW,292,0.0,0.0,97,0.00,,---,0.00,VWS V14.01,2013-10-04 14:11:00,
2013-10-04 07:16:00,32.0,31.2,28.64,WNW,292,0.0,0.0,97,0.00,,---,0.00,VWS V14.01,2013-10-04 14:16:00,
2013-10-04 07:21:00,31.8,31.1,28.64,WNW,292,0.0,0.0,97,0.00,,---,0.00,VWS V14.01,2013-10-04 14:21:00,
2013-10-04 07:26:00,31.6,30.9,28.64,WNW,292,0.0,0.0,97,0.00,,---,0.00,VWS V14.01,2013-10-04 14:26:00,
2013-10-04 07:31:00,31.8,31.1,28.64,WSW,248,0.0,0.0,97,0.00,,---,0.00,VWS V14.01,2013-10-04 14:31:00,
2013-10-04 07:36:00,32.2,31.4,28.64,WSW,248,0.0,0.0,97,0.00,,---,0.00,VWS V14.01,2013-10-04 14:36:00,
2013-10-04 07:41:00,32.0,31.2,28.64,WSW,248,0.0,0.0,97,0.00,,---,0.00,VWS V14.01,2013-10-04 14:41:00,
2013-10-04 07:46:00,31.8,31.1,28.64,WSW,248,0.0,0.0,97,0.00,,---,0.00,VWS V14.01,2013-10-04 14:46:00,
2013-10-04 07:51:00,32.0,31.2,28.64,WSW,248,0.0,0.0,97,0.00,,---,0.00,VWS V14.01,2013-10-04 14:51:00,
2013-10-04 07:56:00,32.0,31.2,28.64,WSW,248,0.0,0.0,97,0.00,,---,0.00,VWS V14.01,2013-10-04 14:56:00,
2013-10-04 08:01:00,32.0,31.2,28.64,WSW,248,0.0,0.0,97,0.00,,---,0.00,VWS V14.01,2013-10-04 15:01:00,
2013-10-04 08:06:00,32.4,31.9,28.64,WSW,248,0.0,0.0,98,0.00,,---,0.00,VWS V14.01,2013-10-04 15:06:00,
2013-10-04 08:11:00,32.4,31.9,28.64,WSW,248,0.0,0.0,98,0.00,,---,0.00,VWS V14.01,2013-10-04 15:11:00,
2013-10-04 08:16:00,32.4,31.9,28.64,WSW,248,0.0,0.0,98,0.00,,---,0.00,VWS V14.01,2013-10-04 15:16:00,
2013-10-04 08:17:00,32.2,31.7,28.64,WSW,248,0.0,0.0,98,0.00,,---,0.00,VWS V14.01,2013-10-04 15:17:00,
2013-10-04 08:22:00,32.2,31.7,28.64,WSW,248,0.0,0.0,98,0.00,,---,0.00,VWS V14.01,2013-10-04 15:22:00,
2013-10-04 08:27:00,32.5,32.0,28.64,WSW,248,0.0,0.0,98,0.00,,---,0.00,VWS V14.01,2013-10-04 15:27:00,
2013-10-04 08:32:00,33.1,32.6,28.64,WNW,292,0.0,0.0,98,0.00,,---,0.00,VWS V14.01,2013-10-04 15:32:00,
2013-10-04 08:37:00,33.1,32.6,28.64,WNW,292,0.0,0.0,98,0.00,,---,0.00,VWS V14.01,2013-10-04 15:37:00,
2013-10-04 08:42:00,33.4,32.9,28.64,WNW,292,0.0,0.0,98,0.00,,---,0.00,VWS V14.01,2013-10-04 15:42:00,
2013-10-04 08:47:00,33.6,33.1,28.64,WNW,292,0.0,0.0,98,0.00,,---,0.00,VWS V14.01,2013-10-04 15:47:00,
2013-10-04 08:52:00,34.0,33.5,28.64,WNW,292,0.0,0.0,98,0.00,,---,0.00,VWS V14.01,2013-10-04 15:52:00,
2013-10-04 08:57:00,34.5,34.0,28.64,WNW,292,0.0,0.0,98,0.00,,---,0.00,VWS V14.01,2013-10-04 15:57:00,
2013-10-04 09:02:00,34.9,34.4,28.64,WNW,292,0.0,0.0,98,0.00,,---,0.00,VWS V14.01,2013-10-04 16:02:00,
2013-10-04 09:07:00,35.4,34.9,28.64,WNW,292,0.0,0.0,98,0.00,,---,0.00,VWS V14.01,2013-10-04 16:07:00,
2013-10-04 09:12:00,35.8,35.3,28.64,WNW,292,0.0,0.0,98,0.00,,---,0.00,VWS V14.01,2013-10-04 16:12:00,
2013-10-04 09:17:00,36.9,36.3,28.64,WNW,292,0.0,0.0,98,0.00,,---,0.00,VWS V14.01,2013-10-04 16:17:00,
2013-10-04 09:22:00,37.6,37.1,28.64,WNW,292,0.0,0.0,98,0.00,,---,0.00,VWS V14.01,2013-10-04 16:22:00,
2013-10-04 09:27:00,38.3,37.8,28.64,West,270,0.0,0.0,98,0.00,,---,0.00,VWS V14.01,2013-10-04 16:27:00,
2013-10-04 09:32:00,39.0,38.5,28.64,West,270,0.0,0.0,98,0.00,,---,0.00,VWS V14.01,2013-10-04 16:32:00,
2013-10-04 09:37:00,39.7,39.2,28.64,West,270,0.0,0.0,98,0.00,,---,0.00,VWS V14.01,2013-10-04 16:37:00,
2013-10-04 09:42:00,39.9,39.4,28.64,West,270,0.0,0.0,98,0.00,,---,0.00,VWS V14.01,2013-10-04 16:42:00,
2013-10-04 09:47:00,40.3,39.8,28.64,West,270,0.0,0.0,98,0.00,,---,0.00,VWS V14.01,2013-10-04 16:47:00,
2013-10-04 09:52:00,41.0,40.5,28.64,West,270,0.0,0.0,98,0.00,,---,0.00,VWS V14.01,2013-10-04 16:52:00,
2013-10-04 09:57:00,41.4,40.8,28.64,West,270,0.0,0.0,98,0.00,,---,0.00,VWS V14.01,2013-10-04 16:57:00,
2013-10-04 10:03:00,41.7,41.2,28.64,WSW,248,0.0,0.0,98,0.00,,---,0.00,VWS V14.01,2013-10-04 17:03:00,
2013-10-04 10:08:00,42.4,41.9,28.64,WSW,248,0.0,0.0,98,0.00,,---,0.00,VWS V14.01,2013-10-04 17:08:00,
2013-10-04 10:13:00,42.8,42.3,28.61,WSW,248,0.0,0.0,98,0.00,,---,0.00,VWS V14.01,2013-10-04 17:13:00,
2013-10-04 10:18:00,43.2,42.6,28.61,SE,135,0.0,0.0,98,0.00,,---,0.00,VWS V14.01,2013-10-04 17:18:00,
2013-10-04 10:23:00,43.7,43.2,28.61,SSW,202,0.0,0.0,98,0.00,,---,0.00,VWS V14.01,2013-10-04 17:23:00,
2013-10-04 10:28:00,44.1,43.5,28.61,SW,225,0.0,0.0,98,0.00,,---,0.00,VWS V14.01,2013-10-04 17:28:00,
2013-10-04 10:33:00,44.8,44.2,28.61,NNE,22,2.7,2.7,98,0.00,,---,0.00,VWS V14.01,2013-10-04 17:33:00,
2013-10-04 11:03:00,55.6,48.8,28.61,SE,135,1.3,1.3,78,0.00,,---,0.00,VWS V14.01,2013-10-04 18:03:00,
2013-10-04 11:08:00,57.6,47.1,28.61,SW,225,0.9,2.0,68,0.00,,---,0.00,VWS V14.01,2013-10-04 18:08:00,
2013-10-04 11:13:00,58.8,47.9,28.64,East,90,0.9,0.9,67,0.00,,---,0.00,VWS V14.01,2013-10-04 18:13:00,
2013-10-04 11:18:00,58.6,39.5,28.64,NW,315,1.1,3.6,49,0.00,,---,0.00,VWS V14.01,2013-10-04 18:18:00,
2013-10-04 11:23:00,59.7,44.5,28.64,South,180,0.0,0.0,57,0.00,,---,0.00,VWS V14.01,2013-10-04 18:23:00,
2013-10-04 11:28:00,59.9,41.2,28.61,SSE,158,0.0,0.9,50,0.00,,---,0.00,VWS V14.01,2013-10-04 18:28:00,
2013-10-04 11:33:00,60.6,43.4,28.61,NNW,338,0.0,1.1,53,0.00,,---,0.00,VWS V14.01,2013-10-04 18:33:00,
2013-10-04 11:38:00,61.3,41.0,28.61,WNW,292,1.6,2.5,47,0.00,,---,0.00,VWS V14.01,2013-10-04 18:38:00,
2013-10-04 11:43:00,61.9,41.5,28.61,North,0,1.1,2.5,47,0.00,,---,0.00,VWS V14.01,2013-10-04 18:43:00,
2013-10-04 11:48:00,61.9,43.1,28.61,South,180,0.0,0.0,50,0.00,,---,0.00,VWS V14.01,2013-10-04 18:48:00,
2013-10-04 11:53:00,62.6,43.7,28.61,SSE,158,1.3,1.3,50,0.00,,---,0.00,VWS V14.01,2013-10-04 18:53:00,
2013-10-04 11:58:00,62.4,40.8,28.61,NNE,22,1.3,2.0,45,0.00,,---,0.00,VWS V14.01,2013-10-04 18:58:00,
2013-10-04 12:03:00,60.8,39.3,28.61,WNW,292,0.0,2.0,45,0.00,,---,0.00,VWS V14.01,2013-10-04 19:03:00,
2013-10-04 12:08:00,60.1,39.2,28.61,West,270,0.0,0.0,46,0.00,,---,0.00,VWS V14.01,2013-10-04 19:08:00,
2013-10-04 12:13:00,59.4,37.5,28.61,WSW,248,3.1,3.1,44,0.00,,---,0.00,VWS V14.01,2013-10-04 19:13:00,
2013-10-04 12:18:00,60.1,39.2,28.61,West,270,0.0,0.0,46,0.00,,---,0.00,VWS V14.01,2013-10-04 19:18:00,
2013-10-04 12:23:00,61.3,41.5,28.61,SSE,158,0.0,0.0,48,0.00,,---,0.00,VWS V14.01,2013-10-04 19:23:00,
2013-10-04 12:28:00,62.4,41.9,28.58,NNE,22,1.6,1.6,47,0.00,,---,0.00,VWS V14.01,2013-10-04 19:28:00,
2013-10-04 12:33:00,62.1,38.1,28.58,ESE,112,0.0,2.2,41,0.00,,---,0.00,VWS V14.01,2013-10-04 19:33:00,
2013-10-04 12:38:00,61.7,39.6,28.58,East,90,0.0,2.0,44,0.00,,---,0.00,VWS V14.01,2013-10-04 19:38:00,
2013-10-04 12:43:00,61.2,35.4,28.58,NNE,22,3.8,3.8,38,0.00,,---,0.00,VWS V14.01,2013-10-04 19:43:00,
2013-10-04 12:48:00,60.3,40.0,28.58,West,270,1.1,1.1,47,0.00,,---,0.00,VWS V14.01,2013-10-04 19:48:00,
2013-10-04 12:53:00,60.1,39.2,28.58,SSW,202,2.5,2.9,46,0.00,,---,0.00,VWS V14.01,2013-10-04 19:53:00,
2013-10-04 12:58:00,59.7,37.8,28.58,North,0,2.7,2.7,44,0.00,,---,0.00,VWS V14.01,2013-10-04 19:58:00,
2013-10-04 13:03:00,59.9,38.0,28.58,SW,225,1.3,2.5,44,0.00,,---,0.00,VWS V14.01,2013-10-04 20:03:00,
2013-10-04 13:08:00,59.7,36.6,28.58,WSW,248,2.7,2.9,42,0.00,,---,0.00,VWS V14.01,2013-10-04 20:08:00,
2013-10-04 13:13:00,59.7,38.4,28.58,SSW,202,3.1,3.1,45,0.00,,---,0.00,VWS V14.01,2013-10-04 20:13:00,
2013-10-04 13:18:00,59.7,39.5,28.58,SW,225,1.6,1.6,47,0.00,,---,0.00,VWS V14.01,2013-10-04 20:18:00,
2013-10-04 13:23:00,60.3,37.7,28.58,WSW,248,0.0,0.0,43,0.00,,---,0.00,VWS V14.01,2013-10-04 20:23:00,
2013-10-04 13:28:00,61.5,40.6,28.58,SSW,202,0.9,2.7,46,0.00,,---,0.00,VWS V14.01,2013-10-04 20:28:00,
2013-10-04 13:33:00,62.6,39.2,28.58,SW,225,2.9,3.1,42,0.00,,---,0.00,VWS V14.01,2013-10-04 20:33:00,
2013-10-04 13:38:00,63.0,40.7,28.58,SSE,158,1.6,2.7,44,0.00,,---,0.00,VWS V14.01,2013-10-04 20:38:00,
2013-10-04 13:43:00,63.5,41.2,28.55,SW,225,2.5,2.9,44,0.00,,---,0.00,VWS V14.01,2013-10-04 20:43:00,
2013-10-04 13:48:00,63.1,38.5,28.55,SSE,158,1.3,3.1,40,0.00,,---,0.00,VWS V14.01,2013-10-04 20:48:00,
2013-10-04 13:53:00,63.0,38.3,28.55,WSW,248,3.6,3.6,40,0.00,,---,0.00,VWS V14.01,2013-10-04 20:53:00,
2013-10-04 13:58:00,61.7,39.6,28.55,SW,225,2.0,2.0,44,0.00,,---,0.00,VWS V14.01,2013-10-04 20:58:00,
2013-10-04 14:03:00,60.6,39.2,28.55,SSW,202,2.5,2.5,45,0.00,,---,0.00,VWS V14.01,2013-10-04 21:03:00,
2013-10-04 14:08:00,59.7,39.5,28.55,WSW,248,0.0,1.6,47,0.00,,---,0.00,VWS V14.01,2013-10-04 21:08:00,
2013-10-04 14:13:00,59.2,39.0,28.55,SW,225,2.5,2.5,47,0.00,,---,0.00,VWS V14.01,2013-10-04 21:13:00,
2013-10-04 14:18:00,59.2,38.4,28.55,South,180,2.5,2.7,46,0.00,,---,0.00,VWS V14.01,2013-10-04 21:18:00,
2013-10-04 14:23:00,59.0,39.9,28.55,SW,225,2.5,2.5,49,0.00,,---,0.00,VWS V14.01,2013-10-04 21:23:00,
2013-10-04 14:28:00,58.1,39.1,28.55,WSW,248,2.5,2.9,49,0.00,,---,0.00,VWS V14.01,2013-10-04 21:28:00,
2013-10-04 14:33:00,57.4,39.4,28.55,SW,225,2.0,2.5,51,0.00,,---,0.00,VWS V14.01,2013-10-04 21:33:00,
2013-10-04 14:38:00,57.0,40.1,28.55,SW,225,0.0,1.6,53,0.00,,---,0.00,VWS V14.01,2013-10-04 21:38:00,
2013-10-04 14:43:00,57.2,40.2,28.55,WSW,248,2.2,2.2,53,0.00,,---,0.00,VWS V14.01,2013-10-04 21:43:00,
2013-10-04 14:49:00,57.2,40.2,28.55,WSW,248,1.6,2.7,53,0.00,,---,0.00,VWS V14.01,2013-10-04 21:49:00,
2013-10-04 14:54:00,57.2,40.7,28.55,SW,225,2.0,2.5,54,0.00,,---,0.00,VWS V14.01,2013-10-04 21:54:00,
2013-10-04 14:59:00,57.6,42.0,28.55,SW,225,0.0,0.0,56,0.00,,---,0.00,VWS V14.01,2013-10-04 21:59:00,
2013-10-04 15:04:00,57.6,41.5,28.55,SW,225,1.1,2.2,55,0.00,,---,0.00,VWS V14.01,2013-10-04 22:04:00,
2013-10-04 15:09:00,57.4,41.4,28.55,WSW,248,1.3,1.3,55,0.00,,---,0.00,VWS V14.01,2013-10-04 22:09:00,
2013-10-04 15:14:00,56.3,40.8,28.52,SW,225,2.2,2.2,56,0.00,,---,0.00,VWS V14.01,2013-10-04 22:14:00,
2013-10-04 15:19:00,54.9,40.4,28.52,SW,225,0.9,1.3,58,0.00,,---,0.00,VWS V14.01,2013-10-04 22:19:00,
2013-10-04 15:24:00,54.0,40.4,28.52,SW,225,0.0,0.0,60,0.00,,---,0.00,VWS V14.01,2013-10-04 22:24:00,
2013-10-04 15:29:00,53.4,40.7,28.52,SW,225,0.0,0.0,62,0.00,,---,0.00,VWS V14.01,2013-10-04 22:29:00,
2013-10-04 15:34:00,52.9,41.0,28.52,WSW,248,0.0,0.0,64,0.00,,---,0.00,VWS V14.01,2013-10-04 22:34:00,
2013-10-04 15:39:00,52.5,41.1,28.52,WSW,248,0.0,0.0,65,0.00,,---,0.00,VWS V14.01,2013-10-04 22:39:00,
2013-10-04 15:44:00,52.3,41.3,28.52,WSW,248,0.0,0.0,66,0.00,,---,0.00,VWS V14.01,2013-10-04 22:44:00,
2013-10-04 15:49:00,52.0,41.4,28.52,SW,225,0.0,0.0,67,0.00,,---,0.00,VWS V14.01,2013-10-04 22:49:00,
2013-10-04 15:54:00,51.8,41.6,28.52,SW,225,0.0,0.0,68,0.00,,---,0.00,VWS V14.01,2013-10-04 22:54:00,
2013-10-04 15:59:00,51.8,42.0,28.52,SW,225,0.0,0.0,69,0.00,,---,0.00,VWS V14.01,2013-10-04 22:59:00,
2013-10-04 16:04:00,51.8,42.0,28.52,SW,225,0.0,0.0,69,0.00,,---,0.00,VWS V14.01,2013-10-04 23:04:00,
2013-10-04 16:09:00,51.8,42.3,28.52,SW,225,0.0,0.0,70,0.00,,---,0.00,VWS V14.01,2013-10-04 23:09:00,
2013-10-04 16:14:00,51.8,42.7,28.52,SW,225,0.0,0.0,71,0.00,,---,0.00,VWS V14.01,2013-10-04 23:14:00,
2013-10-04 16:19:00,51.4,42.7,28.52,SW,225,0.0,0.0,72,0.00,,---,0.00,VWS V14.01,2013-10-04 23:19:00,
2013-10-04 16:24:00,51.1,42.4,28.52,SW,225,0.0,0.0,72,0.00,,---,0.00,VWS V14.01,2013-10-04 23:24:00,
2013-10-04 16:29:00,50.7,42.0,28.52,SW,225,0.0,0.0,72,0.00,,---,0.00,VWS V14.01,2013-10-04 23:29:00,
2013-10-04 16:34:00,50.5,42.2,28.52,SW,225,0.0,0.0,73,0.00,,---,0.00,VWS V14.01,2013-10-04 23:34:00,
2013-10-04 16:39:00,50.4,42.4,28.52,SW,225,0.0,0.0,74,0.00,,---,0.00,VWS V14.01,2013-10-04 23:39:00,
2013-10-04 16:44:00,50.0,42.0,28.52,SW,225,0.0,0.0,74,0.00,,---,0.00,VWS V14.01,2013-10-04 23:44:00,
2013-10-04 16:49:00,49.8,42.2,28.52,SW,225,0.0,0.0,75,0.00,,---,0.00,VWS V14.01,2013-10-04 23:49:00,
2013-10-04 16:54:00,49.5,41.9,28.52,SW,225,0.0,0.0,75,0.00,,---,0.00,VWS V14.01,2013-10-04 23:54:00,
2013-10-04 16:59:00,49.3,41.7,28.52,SW,225,0.0,0.0,75,0.00,,---,0.00,VWS V14.01,2013-10-04 23:59:00,
2013-10-04 17:04:00,48.9,41.7,28.52,SW,225,0.0,0.0,76,0.00,,---,0.00,VWS V14.01,2013-10-05 00:04:00,
2013-10-04 17:09:00,48.7,41.5,28.52,SW,225,0.0,0.0,76,0.00,,---,0.00,VWS V14.01,2013-10-05 00:09:00,
2013-10-04 17:14:00,48.6,41.7,28.52,SW,225,0.0,0.0,77,0.00,,---,0.00,VWS V14.01,2013-10-05 00:14:00,
2013-10-04 17:19:00,48.4,41.5,28.52,SW,225,0.0,0.0,77,0.00,,---,0.00,VWS V14.01,2013-10-05 00:19:00,
2013-10-04 17:24:00,48.2,41.7,28.52,SW,225,0.0,0.0,78,0.00,,---,0.00,VWS V14.01,2013-10-05 00:24:00,
2013-10-04 17:29:00,47.8,41.7,28.52,SW,225,0.0,0.0,79,0.00,,---,0.00,VWS V14.01,2013-10-05 00:29:00,
2013-10-04 17:34:00,47.7,41.5,28.52,SW,225,0.0,0.0,79,0.00,,---,0.00,VWS V14.01,2013-10-05 00:34:00,
2013-10-04 17:39:00,47.5,41.6,28.52,SW,225,0.0,0.0,80,0.00,,---,0.00,VWS V14.01,2013-10-05 00:39:00,
2013-10-04 17:44:00,47.3,41.8,28.52,SW,225,0.0,0.0,81,0.00,,---,0.00,VWS V14.01,2013-10-05 00:44:00,
2013-10-04 17:49:00,47.3,41.8,28.52,SW,225,0.0,0.0,81,0.00,,---,0.00,VWS V14.01,2013-10-05 00:49:00,
2013-10-04 17:54:00,47.1,41.9,28.52,SW,225,0.0,0.0,82,0.00,,---,0.00,VWS V14.01,2013-10-05 00:54:00,
2013-10-04 17:59:00,46.8,41.2,28.52,SW,225,0.0,0.0,81,0.00,,---,0.00,VWS V14.01,2013-10-05 00:59:00,
2013-10-04 18:04:00,46.6,41.4,28.52,SW,225,0.0,0.0,82,0.00,,---,0.00,VWS V14.01,2013-10-05 01:04:00,
2013-10-04 18:09:00,46.2,41.0,28.52,SW,225,0.0,0.0,82,0.00,,---,0.00,VWS V14.01,2013-10-05 01:09:00,
2013-10-04 18:14:00,45.9,41.0,28.52,SW,225,0.0,0.0,83,0.00,,---,0.00,VWS V14.01,2013-10-05 01:14:00,
2013-10-04 18:19:00,45.5,40.7,28.52,SW,225,0.0,0.0,83,0.00,,---,0.00,VWS V14.01,2013-10-05 01:19:00,
2013-10-04 18:24:00,45.3,40.8,28.52,SW,225,0.0,0.0,84,0.00,,---,0.00,VWS V14.01,2013-10-05 01:24:00,
2013-10-04 18:29:00,45.0,40.1,28.52,SW,225,0.0,0.0,83,0.00,,---,0.00,VWS V14.01,2013-10-05 01:29:00,
2013-10-04 18:34:00,44.6,40.1,28.52,SW,225,0.0,0.0,84,0.00,,---,0.00,VWS V14.01,2013-10-05 01:34:00,
2013-10-04 18:39:00,44.4,40.2,28.52,SW,225,0.0,0.0,85,0.00,,---,0.00,VWS V14.01,2013-10-05 01:39:00,
2013-10-04 18:44:00,44.1,39.8,28.52,SW,225,0.0,0.0,85,0.00,,---,0.00,VWS V14.01,2013-10-05 01:44:00,
2013-10-04 18:49:00,43.7,39.5,28.52,SW,225,0.0,0.0,85,0.00,,---,0.00,VWS V14.01,2013-10-05 01:49:00,
2013-10-04 18:54:00,43.5,39.6,28.52,West,270,0.0,0.0,86,0.00,,---,0.00,VWS V14.01,2013-10-05 01:54:00,
2013-10-04 18:59:00,43.2,39.3,28.52,West,270,0.0,0.0,86,0.00,,---,0.00,VWS V14.01,2013-10-05 01:59:00,
2013-10-04 19:04:00,43.0,39.1,28.52,WSW,248,0.0,0.0,86,0.00,,---,0.00,VWS V14.01,2013-10-05 02:04:00,
2013-10-04 19:09:00,42.8,38.9,28.52,West,270,0.0,0.0,86,0.00,,---,0.00,VWS V14.01,2013-10-05 02:09:00,
2013-10-04 19:14:00,42.4,38.8,28.52,WSW,248,0.0,0.0,87,0.00,,---,0.00,VWS V14.01,2013-10-05 02:14:00,
2013-10-04 19:20:00,42.3,38.7,28.52,WSW,248,0.0,0.0,87,0.00,,---,0.00,VWS V14.01,2013-10-05 02:20:00,
2013-10-04 19:25:00,42.1,38.5,28.52,WSW,248,0.0,0.0,87,0.00,,---,0.00,VWS V14.01,2013-10-05 02:25:00,
2013-10-04 19:30:00,41.9,38.3,28.55,WSW,248,0.0,0.0,87,0.00,,---,0.00,VWS V14.01,2013-10-05 02:30:00,
2013-10-04 19:35:00,41.7,38.4,28.55,WSW,248,0.0,0.0,88,0.00,,---,0.00,VWS V14.01,2013-10-05 02:35:00,
2013-10-04 19:40:00,41.5,38.3,28.55,WSW,248,0.0,0.0,88,0.00,,---,0.00,VWS V14.01,2013-10-05 02:40:00,
2013-10-04 19:45:00,41.5,38.3,28.55,WSW,248,0.0,0.0,88,0.00,,---,0.00,VWS V14.01,2013-10-05 02:45:00,
2013-10-04 19:50:00,41.2,37.9,28.55,WSW,248,0.0,0.0,88,0.00,,---,0.00,VWS V14.01,2013-10-05 02:50:00,
2013-10-04 19:55:00,41.2,37.9,28.55,WSW,248,0.0,0.0,88,0.00,,---,0.00,VWS V14.01,2013-10-05 02:55:00,
2013-10-04 20:00:00,41.0,38.0,28.55,WSW,248,0.0,0.0,89,0.00,,---,0.00,VWS V14.01,2013-10-05 03:00:00,
2013-10-04 20:05:00,41.0,38.0,28.55,West,270,0.0,0.0,89,0.00,,---,0.00,VWS V14.01,2013-10-05 03:05:00,
2013-10-04 20:10:00,41.0,38.0,28.55,West,270,0.0,0.0,89,0.00,,---,0.00,VWS V14.01,2013-10-05 03:10:00,
2013-10-04 20:15:00,40.8,38.1,28.52,WSW,248,0.0,0.0,90,0.00,,---,0.00,VWS V14.01,2013-10-05 03:15:00,
2013-10-04 20:20:00,40.8,38.1,28.52,WSW,248,0.0,0.0,90,0.00,,---,0.00,VWS V14.01,2013-10-05 03:20:00,
2013-10-04 20:25:00,40.6,37.9,28.52,West,270,0.0,0.0,90,0.00,,---,0.00,VWS V14.01,2013-10-05 03:25:00,
2013-10-04 20:30:00,40.5,37.8,28.52,West,270,0.0,0.0,90,0.00,,---,0.00,VWS V14.01,2013-10-05 03:30:00,
2013-10-04 20:35:00,40.5,37.8,28.52,West,270,0.0,0.0,90,0.00,,---,0.00,VWS V14.01,2013-10-05 03:35:00,
2013-10-04 20:40:00,40.3,37.6,28.52,WSW,248,0.0,0.0,90,0.00,,---,0.00,VWS V14.01,2013-10-05 03:40:00,
2013-10-04 20:45:00,40.3,37.9,28.52,WSW,248,0.0,0.0,91,0.00,,---,0.00,VWS V14.01,2013-10-05 03:45:00,
2013-10-04 20:50:00,40.3,37.9,28.52,WSW,248,0.0,0.0,91,0.00,,---,0.00,VWS V14.01,2013-10-05 03:50:00,
2013-10-04 20:55:00,40.3,37.9,28.52,WSW,248,0.0,0.0,91,0.00,,---,0.00,VWS V14.01,2013-10-05 03:55:00,
2013-10-04 21:00:00,40.3,37.9,28.55,WSW,248,0.0,0.0,91,0.00,,---,0.00,VWS V14.01,2013-10-05 04:00:00,
2013-10-04 21:01:00,40.3,37.9,28.55,WSW,248,0.0,0.0,91,0.00,,---,0.00,VWS V14.01,2013-10-05 04:01:00,
2013-10-04 21:02:00,40.3,37.9,28.55,WSW,248,0.0,0.0,91,0.00,,---,0.00,VWS V14.01,2013-10-05 04:02:00,
2013-10-04 21:07:00,40.3,37.9,28.55,WSW,248,0.0,0.0,91,0.00,,---,0.00,VWS V14.01,2013-10-05 04:07:00,
2013-10-04 21:12:00,40.3,37.9,28.55,WSW,248,0.0,0.0,91,0.00,,---,0.00,VWS V14.01,2013-10-05 04:12:00,
2013-10-04 21:17:00,40.5,38.3,28.55,WNW,292,0.0,0.0,92,0.00,,---,0.00,VWS V14.01,2013-10-05 04:17:00,
2013-10-04 21:22:00,40.5,38.3,28.55,WNW,292,0.0,0.0,92,0.00,,---,0.00,VWS V14.01,2013-10-05 04:22:00,
2013-10-04 21:27:00,40.5,38.3,28.55,WNW,292,0.0,0.0,92,0.00,,---,0.00,VWS V14.01,2013-10-05 04:27:00,
2013-10-04 21:32:00,40.5,38.3,28.55,WNW,292,0.0,0.0,92,0.00,,---,0.00,VWS V14.01,2013-10-05 04:32:00,
2013-10-04 21:37:00,40.3,38.2,28.55,WNW,292,0.0,0.0,92,0.00,,---,0.00,VWS V14.01,2013-10-05 04:37:00,
2013-10-04 21:42:00,40.1,38.0,28.55,WNW,292,0.0,0.0,92,0.00,,---,0.00,VWS V14.01,2013-10-05 04:42:00,
2013-10-04 21:47:00,40.1,38.0,28.55,WNW,292,0.0,0.0,92,0.00,,---,0.00,VWS V14.01,2013-10-05 04:47:00,
2013-10-04 21:52:00,40.1,38.0,28.55,WNW,292,0.0,0.0,92,0.00,,---,0.00,VWS V14.01,2013-10-05 04:52:00,
2013-10-04 21:57:00,39.9,37.8,28.55,WNW,292,0.0,0.0,92,0.00,,---,0.00,VWS V14.01,2013-10-05 04:57:00,
2013-10-04 22:02:00,39.9,37.8,28.52,WNW,292,0.0,0.0,92,0.00,,---,0.00,VWS V14.01,2013-10-05 05:02:00,
2013-10-04 22:07:00,39.9,37.8,28.52,WNW,292,0.0,0.0,92,0.00,,---,0.00,VWS V14.01,2013-10-05 05:07:00,
2013-10-04 22:12:00,39.7,37.9,28.52,WNW,292,0.0,0.0,93,0.00,,---,0.00,VWS V14.01,2013-10-05 05:12:00,
2013-10-04 22:17:00,39.7,37.9,28.55,WNW,292,0.0,0.0,93,0.00,,---,0.00,VWS V14.01,2013-10-05 05:17:00,
2013-10-04 22:22:00,39.7,37.9,28.55,WNW,292,0.0,0.0,93,0.00,,---,0.00,VWS V14.01,2013-10-05 05:22:00,
2013-10-04 22:27:00,39.7,37.9,28.55,WNW,292,0.0,0.0,93,0.00,,---,0.00,VWS V14.01,2013-10-05 05:27:00,
2013-10-04 22:32:00,39.4,37.5,28.55,WNW,292,0.0,0.0,93,0.00,,---,0.00,VWS V14.01,2013-10-05 05:32:00,
2013-10-04 22:37:00,39.4,37.5,28.55,South,180,0.0,0.0,93,0.00,,---,0.00,VWS V14.01,2013-10-05 05:37:00,
2013-10-04 22:42:00,39.2,37.3,28.52,WSW,248,0.0,0.0,93,0.00,,---,0.00,VWS V14.01,2013-10-05 05:42:00,
2013-10-04 22:47:00,39.4,37.5,28.52,SSE,158,0.0,0.0,93,0.00,,---,0.00,VWS V14.01,2013-10-05 05:47:00,
2013-10-04 22:52:00,39.2,37.3,28.52,WSW,248,0.0,0.0,93,0.00,,---,0.00,VWS V14.01,2013-10-05 05:52:00,
2013-10-04 22:57:00,39.0,37.2,28.55,SW,225,0.0,0.0,93,0.00,,---,0.00,VWS V14.01,2013-10-05 05:57:00,
2013-10-04 23:02:00,39.0,37.2,28.55,WNW,292,0.0,0.0,93,0.00,,---,0.00,VWS V14.01,2013-10-05 06:02:00,
2013-10-04 23:07:00,38.8,37.0,28.55,West,270,0.0,0.0,93,0.00,,---,0.00,VWS V14.01,2013-10-05 06:07:00,
2013-10-04 23:12:00,38.8,37.0,28.52,West,270,0.0,0.0,93,0.00,,---,0.00,VWS V14.01,2013-10-05 06:12:00,
2013-10-04 23:18:00,38.5,36.6,28.52,West,270,0.0,0.0,93,0.00,,---,0.00,VWS V14.01,2013-10-05 06:18:00,
2013-10-04 23:23:00,38.3,36.5,28.52,West,270,0.0,0.0,93,0.00,,---,0.00,VWS V14.01,2013-10-05 06:23:00,
2013-10-04 23:28:00,38.1,36.3,28.52,West,270,0.0,0.0,93,0.00,,---,0.00,VWS V14.01,2013-10-05 06:28:00,
2013-10-04 23:33:00,37.9,36.1,28.52,West,270,0.0,0.0,93,0.00,,---,0.00,VWS V14.01,2013-10-05 06:33:00,
2013-10-04 23:38:00,37.9,36.1,28.52,West,270,0.0,0.0,93,0.00,,---,0.00,VWS V14.01,2013-10-05 06:38:00,
2013-10-04 23:43:00,37.9,36.1,28.52,West,270,0.0,0.0,93,0.00,,---,0.00,VWS V14.01,2013-10-05 06:43:00,
2013-10-04 23:48:00,37.9,36.4,28.52,West,270,0.0,0.0,94,0.00,,---,0.00,VWS V14.01,2013-10-05 06:48:00,
2013-10-04 23:53:00,37.9,36.4,28.52,West,270,0.0,0.0,94,0.00,,---,0.00,VWS V14.01,2013-10-05 06:53:00,
2013-10-04 23:58:00,37.9,36.4,28.52,West,270,0.0,0.0,94,0.00,,---,0.00,VWS V14.01,2013-10-05 06:58:00,